sensor_id;sensor_type;location;lat;lon;timestamp;P1;durP1;ratioP1;P2;durP2;ratioP2
53545;SDS011;39432;51.902;10.844;2022-12-18T00:00:38;35.33;;;18.88;;
53545;SDS011;39432;51.902;10.844;2022-12-18T00:03:09;37.45;;;19.00;;
53545;SDS011;39432;51.902;10.844;2022-12-18T00:05:45;36.72;;;19.02;;
53545;SDS011;39432;51.902;10.844;2022-12-18T00:08:15;33.60;;;18.70;;
53545;SDS011;39432;51.902;10.844;2022-12-18T00:10:48;33.92;;;17.98;;
53545;SDS011;39432;51.902;10.844;2022-12-18T00:13:18;32.55;;;18.15;;
53545;SDS011;39432;51.902;10.844;2022-12-18T00:15:48;32.72;;;18.98;;
53545;SDS011;39432;51.902;10.844;2022-12-18T00:18:22;29.27;;;16.83;;
53545;SDS011;39432;51.902;10.844;2022-12-18T00:20:51;32.63;;;18.02;;
53545;SDS011;39432;51.902;10.844;2022-12-18T00:23:21;34.63;;;17.52;;
53545;SDS011;39432;51.902;10.844;2022-12-18T00:25:53;33.67;;;19.02;;
53545;SDS011;39432;51.902;10.844;2022-12-18T00:28:23;34.65;;;18.27;;
53545;SDS011;39432;51.902;10.844;2022-12-18T00:30:58;34.95;;;17.85;;
53545;SDS011;39432;51.902;10.844;2022-12-18T00:33:29;32.75;;;18.52;;
53545;SDS011;39432;51.902;10.844;2022-12-18T00:36:00;32.20;;;17.50;;
53545;SDS011;39432;51.902;10.844;2022-12-18T00:38:31;35.30;;;18.45;;
53545;SDS011;39432;51.902;10.844;2022-12-18T00:41:04;35.38;;;19.08;;
53545;SDS011;39432;51.902;10.844;2022-12-18T00:43:35;34.22;;;19.35;;
53545;SDS011;39432;51.902;10.844;2022-12-18T00:46:04;33.50;;;17.35;;
53545;SDS011;39432;51.902;10.844;2022-12-18T00:48:35;32.88;;;19.05;;
53545;SDS011;39432;51.902;10.844;2022-12-18T00:51:06;33.28;;;19.50;;
53545;SDS011;39432;51.902;10.844;2022-12-18T00:53:35;32.90;;;19.35;;
53545;SDS011;39432;51.902;10.844;2022-12-18T00:56:08;36.70;;;18.35;;
53545;SDS011;39432;51.902;10.844;2022-12-18T00:58:38;35.40;;;19.02;;
53545;SDS011;39432;51.902;10.844;2022-12-18T01:01:08;35.72;;;18.40;;
53545;SDS011;39432;51.902;10.844;2022-12-18T01:03:39;35.67;;;17.75;;
53545;SDS011;39432;51.902;10.844;2022-12-18T01:06:09;32.65;;;18.13;;
53545;SDS011;39432;51.902;10.844;2022-12-18T01:08:41;31.42;;;16.77;;
53545;SDS011;39432;51.902;10.844;2022-12-18T01:11:15;31.80;;;17.08;;
53545;SDS011;39432;51.902;10.844;2022-12-18T01:13:47;32.92;;;17.00;;
53545;SDS011;39432;51.902;10.844;2022-12-18T01:16:17;29.02;;;15.77;;
53545;SDS011;39432;51.902;10.844;2022-12-18T01:18:47;32.17;;;18.00;;
53545;SDS011;39432;51.902;10.844;2022-12-18T01:21:20;30.73;;;16.98;;
53545;SDS011;39432;51.902;10.844;2022-12-18T01:23:51;31.35;;;16.40;;
53545;SDS011;39432;51.902;10.844;2022-12-18T01:26:25;30.27;;;16.20;;
53545;SDS011;39432;51.902;10.844;2022-12-18T01:28:56;28.77;;;15.63;;
53545;SDS011;39432;51.902;10.844;2022-12-18T01:31:26;32.33;;;16.23;;
53545;SDS011;39432;51.902;10.844;2022-12-18T01:34:01;30.83;;;15.60;;
53545;SDS011;39432;51.902;10.844;2022-12-18T01:36:34;31.38;;;16.33;;
53545;SDS011;39432;51.902;10.844;2022-12-18T01:39:06;31.48;;;17.08;;
53545;SDS011;39432;51.902;10.844;2022-12-18T01:41:43;30.95;;;16.50;;
53545;SDS011;39432;51.902;10.844;2022-12-18T01:47:25;32.97;;;17.38;;
53545;SDS011;39432;51.902;10.844;2022-12-18T01:49:58;30.83;;;16.67;;
53545;SDS011;39432;51.902;10.844;2022-12-18T01:52:31;31.52;;;16.65;;
53545;SDS011;39432;51.902;10.844;2022-12-18T01:55:06;30.42;;;17.08;;
53545;SDS011;39432;51.902;10.844;2022-12-18T01:57:40;33.95;;;17.17;;
53545;SDS011;39432;51.902;10.844;2022-12-18T02:00:12;30.40;;;17.27;;
53545;SDS011;39432;51.902;10.844;2022-12-18T02:02:44;35.67;;;16.88;;
53545;SDS011;39432;51.902;10.844;2022-12-18T02:05:18;31.92;;;17.13;;
53545;SDS011;39432;51.902;10.844;2022-12-18T02:07:56;33.30;;;17.83;;
53545;SDS011;39432;51.902;10.844;2022-12-18T02:10:34;34.13;;;18.25;;
53545;SDS011;39432;51.902;10.844;2022-12-18T02:13:18;32.53;;;16.98;;
53545;SDS011;39432;51.902;10.844;2022-12-18T02:15:54;34.15;;;16.55;;
53545;SDS011;39432;51.902;10.844;2022-12-18T02:18:32;31.95;;;17.42;;
53545;SDS011;39432;51.902;10.844;2022-12-18T02:21:08;28.73;;;16.27;;
53545;SDS011;39432;51.902;10.844;2022-12-18T02:23:47;29.65;;;16.88;;
53545;SDS011;39432;51.902;10.844;2022-12-18T02:26:26;32.83;;;16.90;;
53545;SDS011;39432;51.902;10.844;2022-12-18T02:29:01;36.30;;;16.73;;
53545;SDS011;39432;51.902;10.844;2022-12-18T02:31:36;33.63;;;18.33;;
53545;SDS011;39432;51.902;10.844;2022-12-18T02:34:10;32.83;;;16.40;;
53545;SDS011;39432;51.902;10.844;2022-12-18T02:36:41;32.00;;;16.52;;
53545;SDS011;39432;51.902;10.844;2022-12-18T02:39:13;34.28;;;16.63;;
53545;SDS011;39432;51.902;10.844;2022-12-18T02:41:58;32.67;;;16.60;;
53545;SDS011;39432;51.902;10.844;2022-12-18T02:44:35;30.08;;;16.33;;
53545;SDS011;39432;51.902;10.844;2022-12-18T02:47:14;33.25;;;16.65;;
53545;SDS011;39432;51.902;10.844;2022-12-18T02:49:49;35.40;;;17.40;;
53545;SDS011;39432;51.902;10.844;2022-12-18T02:52:32;32.20;;;16.92;;
53545;SDS011;39432;51.902;10.844;2022-12-18T02:55:09;29.25;;;16.15;;
53545;SDS011;39432;51.902;10.844;2022-12-18T03:00:33;31.77;;;15.93;;
53545;SDS011;39432;51.902;10.844;2022-12-18T03:03:09;33.72;;;16.63;;
53545;SDS011;39432;51.902;10.844;2022-12-18T03:05:47;31.50;;;16.45;;
53545;SDS011;39432;51.902;10.844;2022-12-18T03:08:23;32.00;;;16.73;;
53545;SDS011;39432;51.902;10.844;2022-12-18T03:10:58;31.10;;;16.50;;
53545;SDS011;39432;51.902;10.844;2022-12-18T03:13:36;29.35;;;16.30;;
53545;SDS011;39432;51.902;10.844;2022-12-18T03:16:12;29.92;;;16.40;;
53545;SDS011;39432;51.902;10.844;2022-12-18T03:18:48;27.63;;;14.32;;
53545;SDS011;39432;51.902;10.844;2022-12-18T03:21:23;28.58;;;14.60;;
53545;SDS011;39432;51.902;10.844;2022-12-18T03:26:28;29.77;;;15.38;;
53545;SDS011;39432;51.902;10.844;2022-12-18T03:29:04;32.72;;;15.25;;
53545;SDS011;39432;51.902;10.844;2022-12-18T03:31:37;27.58;;;13.65;;
53545;SDS011;39432;51.902;10.844;2022-12-18T03:34:12;32.08;;;15.45;;
53545;SDS011;39432;51.902;10.844;2022-12-18T03:36:46;33.20;;;15.80;;
53545;SDS011;39432;51.902;10.844;2022-12-18T03:39:15;26.63;;;14.35;;
53545;SDS011;39432;51.902;10.844;2022-12-18T03:41:56;30.85;;;15.02;;
53545;SDS011;39432;51.902;10.844;2022-12-18T03:44:39;28.85;;;14.20;;
53545;SDS011;39432;51.902;10.844;2022-12-18T03:47:15;29.30;;;15.52;;
53545;SDS011;39432;51.902;10.844;2022-12-18T03:49:53;29.48;;;15.38;;
53545;SDS011;39432;51.902;10.844;2022-12-18T03:52:36;29.25;;;14.43;;
53545;SDS011;39432;51.902;10.844;2022-12-18T03:55:09;32.10;;;14.77;;
53545;SDS011;39432;51.902;10.844;2022-12-18T03:57:42;31.13;;;14.43;;
53545;SDS011;39432;51.902;10.844;2022-12-18T04:00:17;25.85;;;14.00;;
53545;SDS011;39432;51.902;10.844;2022-12-18T04:02:54;28.35;;;13.85;;
53545;SDS011;39432;51.902;10.844;2022-12-18T04:05:33;28.17;;;15.00;;
53545;SDS011;39432;51.902;10.844;2022-12-18T04:08:06;27.63;;;14.90;;
53545;SDS011;39432;51.902;10.844;2022-12-18T04:10:41;30.58;;;14.48;;
53545;SDS011;39432;51.902;10.844;2022-12-18T04:13:11;33.88;;;15.38;;
53545;SDS011;39432;51.902;10.844;2022-12-18T04:15:44;30.27;;;14.73;;
53545;SDS011;39432;51.902;10.844;2022-12-18T04:18:15;24.85;;;14.25;;
53545;SDS011;39432;51.902;10.844;2022-12-18T04:20:45;30.50;;;14.77;;
53545;SDS011;39432;51.902;10.844;2022-12-18T04:23:16;28.33;;;14.60;;
53545;SDS011;39432;51.902;10.844;2022-12-18T04:25:47;26.63;;;14.52;;
53545;SDS011;39432;51.902;10.844;2022-12-18T04:28:26;28.65;;;13.20;;
53545;SDS011;39432;51.902;10.844;2022-12-18T04:30:59;26.55;;;13.65;;
53545;SDS011;39432;51.902;10.844;2022-12-18T04:33:29;26.83;;;13.75;;
53545;SDS011;39432;51.902;10.844;2022-12-18T04:35:59;31.27;;;14.18;;
53545;SDS011;39432;51.902;10.844;2022-12-18T04:38:29;28.33;;;13.65;;
53545;SDS011;39432;51.902;10.844;2022-12-18T04:41:05;26.65;;;14.77;;
53545;SDS011;39432;51.902;10.844;2022-12-18T04:43:35;27.75;;;13.82;;
53545;SDS011;39432;51.902;10.844;2022-12-18T04:46:09;26.33;;;14.77;;
53545;SDS011;39432;51.902;10.844;2022-12-18T04:48:39;28.70;;;14.35;;
53545;SDS011;39432;51.902;10.844;2022-12-18T04:51:09;28.10;;;14.20;;
53545;SDS011;39432;51.902;10.844;2022-12-18T04:53:39;25.95;;;13.65;;
53545;SDS011;39432;51.902;10.844;2022-12-18T04:56:10;28.40;;;14.35;;
53545;SDS011;39432;51.902;10.844;2022-12-18T04:58:42;27.70;;;14.25;;
53545;SDS011;39432;51.902;10.844;2022-12-18T05:01:17;27.02;;;14.57;;
53545;SDS011;39432;51.902;10.844;2022-12-18T05:03:48;26.02;;;14.07;;
53545;SDS011;39432;51.902;10.844;2022-12-18T05:06:18;32.15;;;14.80;;
53545;SDS011;39432;51.902;10.844;2022-12-18T05:08:51;27.30;;;13.20;;
53545;SDS011;39432;51.902;10.844;2022-12-18T05:11:20;25.85;;;13.82;;
53545;SDS011;39432;51.902;10.844;2022-12-18T05:13:50;28.33;;;13.63;;
53545;SDS011;39432;51.902;10.844;2022-12-18T05:16:23;25.80;;;13.15;;
53545;SDS011;39432;51.902;10.844;2022-12-18T05:18:52;24.50;;;13.23;;
53545;SDS011;39432;51.902;10.844;2022-12-18T05:21:22;26.98;;;12.30;;
53545;SDS011;39432;51.902;10.844;2022-12-18T05:23:52;22.75;;;12.27;;
53545;SDS011;39432;51.902;10.844;2022-12-18T05:26:22;23.10;;;11.98;;
53545;SDS011;39432;51.902;10.844;2022-12-18T05:28:52;25.40;;;12.70;;
53545;SDS011;39432;51.902;10.844;2022-12-18T05:31:24;30.08;;;13.48;;
53545;SDS011;39432;51.902;10.844;2022-12-18T05:33:54;24.50;;;13.02;;
53545;SDS011;39432;51.902;10.844;2022-12-18T05:36:24;25.60;;;12.70;;
53545;SDS011;39432;51.902;10.844;2022-12-18T05:38:53;28.27;;;13.38;;
53545;SDS011;39432;51.902;10.844;2022-12-18T05:41:23;24.95;;;12.45;;
53545;SDS011;39432;51.902;10.844;2022-12-18T05:43:53;24.95;;;12.60;;
53545;SDS011;39432;51.902;10.844;2022-12-18T05:46:25;27.63;;;13.52;;
53545;SDS011;39432;51.902;10.844;2022-12-18T05:48:58;25.52;;;12.85;;
53545;SDS011;39432;51.902;10.844;2022-12-18T05:51:29;26.98;;;14.00;;
53545;SDS011;39432;51.902;10.844;2022-12-18T05:53:58;32.85;;;13.80;;
53545;SDS011;39432;51.902;10.844;2022-12-18T05:56:28;27.42;;;12.98;;
53545;SDS011;39432;51.902;10.844;2022-12-18T05:58:59;25.40;;;12.45;;
53545;SDS011;39432;51.902;10.844;2022-12-18T06:01:31;28.00;;;14.05;;
53545;SDS011;39432;51.902;10.844;2022-12-18T06:04:01;23.23;;;12.50;;
53545;SDS011;39432;51.902;10.844;2022-12-18T06:06:32;27.33;;;13.10;;
53545;SDS011;39432;51.902;10.844;2022-12-18T06:09:02;27.05;;;13.52;;
53545;SDS011;39432;51.902;10.844;2022-12-18T06:11:35;27.05;;;13.30;;
53545;SDS011;39432;51.902;10.844;2022-12-18T06:14:06;28.20;;;13.07;;
53545;SDS011;39432;51.902;10.844;2022-12-18T06:16:38;27.60;;;13.85;;
53545;SDS011;39432;51.902;10.844;2022-12-18T06:19:12;28.13;;;13.45;;
53545;SDS011;39432;51.902;10.844;2022-12-18T06:21:44;30.67;;;13.95;;
53545;SDS011;39432;51.902;10.844;2022-12-18T06:24:14;27.48;;;13.80;;
53545;SDS011;39432;51.902;10.844;2022-12-18T06:26:44;28.67;;;13.60;;
53545;SDS011;39432;51.902;10.844;2022-12-18T06:29:14;29.13;;;13.57;;
53545;SDS011;39432;51.902;10.844;2022-12-18T06:31:46;28.83;;;13.80;;
53545;SDS011;39432;51.902;10.844;2022-12-18T06:34:16;29.27;;;13.93;;
53545;SDS011;39432;51.902;10.844;2022-12-18T06:36:46;27.70;;;13.00;;
53545;SDS011;39432;51.902;10.844;2022-12-18T06:39:16;27.85;;;12.35;;
53545;SDS011;39432;51.902;10.844;2022-12-18T06:41:46;27.05;;;14.40;;
53545;SDS011;39432;51.902;10.844;2022-12-18T06:44:16;28.63;;;14.15;;
53545;SDS011;39432;51.902;10.844;2022-12-18T06:46:51;27.23;;;13.20;;
53545;SDS011;39432;51.902;10.844;2022-12-18T06:49:20;28.50;;;13.55;;
53545;SDS011;39432;51.902;10.844;2022-12-18T06:51:56;29.80;;;13.13;;
53545;SDS011;39432;51.902;10.844;2022-12-18T06:54:26;29.52;;;12.73;;
53545;SDS011;39432;51.902;10.844;2022-12-18T06:56:56;23.77;;;12.13;;
53545;SDS011;39432;51.902;10.844;2022-12-18T06:59:25;26.60;;;12.57;;
53545;SDS011;39432;51.902;10.844;2022-12-18T07:01:58;30.85;;;13.02;;
53545;SDS011;39432;51.902;10.844;2022-12-18T07:04:28;28.00;;;12.90;;
53545;SDS011;39432;51.902;10.844;2022-12-18T07:06:58;26.88;;;12.07;;
53545;SDS011;39432;51.902;10.844;2022-12-18T07:09:28;27.95;;;12.90;;
53545;SDS011;39432;51.902;10.844;2022-12-18T07:11:58;27.27;;;12.65;;
53545;SDS011;39432;51.902;10.844;2022-12-18T07:14:27;25.77;;;11.57;;
53545;SDS011;39432;51.902;10.844;2022-12-18T07:17:00;25.10;;;12.50;;
53545;SDS011;39432;51.902;10.844;2022-12-18T07:19:32;24.83;;;10.60;;
53545;SDS011;39432;51.902;10.844;2022-12-18T07:22:01;25.50;;;11.73;;
53545;SDS011;39432;51.902;10.844;2022-12-18T07:24:32;24.58;;;12.18;;
53545;SDS011;39432;51.902;10.844;2022-12-18T07:27:02;29.40;;;12.90;;
53545;SDS011;39432;51.902;10.844;2022-12-18T07:29:33;24.25;;;11.98;;
53545;SDS011;39432;51.902;10.844;2022-12-18T07:32:06;24.80;;;11.80;;
53545;SDS011;39432;51.902;10.844;2022-12-18T07:34:38;30.70;;;13.15;;
53545;SDS011;39432;51.902;10.844;2022-12-18T07:37:07;28.10;;;12.25;;
53545;SDS011;39432;51.902;10.844;2022-12-18T07:39:37;29.65;;;13.07;;
53545;SDS011;39432;51.902;10.844;2022-12-18T07:42:07;26.45;;;12.52;;
53545;SDS011;39432;51.902;10.844;2022-12-18T07:44:50;26.90;;;13.25;;
53545;SDS011;39432;51.902;10.844;2022-12-18T07:47:23;29.10;;;14.02;;
53545;SDS011;39432;51.902;10.844;2022-12-18T07:49:53;34.60;;;13.63;;
53545;SDS011;39432;51.902;10.844;2022-12-18T07:52:24;35.15;;;13.50;;
53545;SDS011;39432;51.902;10.844;2022-12-18T07:54:54;30.80;;;13.80;;
53545;SDS011;39432;51.902;10.844;2022-12-18T07:57:23;29.83;;;12.70;;
53545;SDS011;39432;51.902;10.844;2022-12-18T08:00:14;27.80;;;13.38;;
53545;SDS011;39432;51.902;10.844;2022-12-18T08:02:47;28.65;;;13.20;;
53545;SDS011;39432;51.902;10.844;2022-12-18T08:05:17;32.28;;;13.32;;
53545;SDS011;39432;51.902;10.844;2022-12-18T08:07:47;28.98;;;12.93;;
53545;SDS011;39432;51.902;10.844;2022-12-18T08:10:17;25.50;;;12.80;;
53545;SDS011;39432;51.902;10.844;2022-12-18T08:12:48;32.00;;;13.30;;
53545;SDS011;39432;51.902;10.844;2022-12-18T08:15:18;28.67;;;12.90;;
53545;SDS011;39432;51.902;10.844;2022-12-18T08:17:50;30.83;;;13.93;;
53545;SDS011;39432;51.902;10.844;2022-12-18T08:20:20;29.83;;;14.10;;
53545;SDS011;39432;51.902;10.844;2022-12-18T08:22:50;31.38;;;14.30;;
53545;SDS011;39432;51.902;10.844;2022-12-18T08:25:20;30.98;;;13.48;;
53545;SDS011;39432;51.902;10.844;2022-12-18T08:27:50;27.58;;;13.50;;
53545;SDS011;39432;51.902;10.844;2022-12-18T08:30:20;28.80;;;13.40;;
53545;SDS011;39432;51.902;10.844;2022-12-18T08:32:53;28.23;;;13.63;;
53545;SDS011;39432;51.902;10.844;2022-12-18T08:35:23;27.70;;;12.20;;
53545;SDS011;39432;51.902;10.844;2022-12-18T08:38:01;27.63;;;12.30;;
53545;SDS011;39432;51.902;10.844;2022-12-18T08:40:31;29.25;;;13.40;;
53545;SDS011;39432;51.902;10.844;2022-12-18T08:43:00;26.33;;;12.52;;
53545;SDS011;39432;51.902;10.844;2022-12-18T08:45:42;26.50;;;12.25;;
53545;SDS011;39432;51.902;10.844;2022-12-18T08:48:15;23.10;;;12.27;;
53545;SDS011;39432;51.902;10.844;2022-12-18T08:53:22;26.30;;;11.73;;
53545;SDS011;39432;51.902;10.844;2022-12-18T08:55:59;20.70;;;10.77;;
53545;SDS011;39432;51.902;10.844;2022-12-18T08:58:29;19.60;;;10.35;;
53545;SDS011;39432;51.902;10.844;2022-12-18T09:00:59;22.15;;;11.02;;
53545;SDS011;39432;51.902;10.844;2022-12-18T09:03:33;19.30;;;9.98;;
53545;SDS011;39432;51.902;10.844;2022-12-18T09:06:03;22.25;;;11.35;;
53545;SDS011;39432;51.902;10.844;2022-12-18T09:08:34;21.10;;;11.05;;
53545;SDS011;39432;51.902;10.844;2022-12-18T09:11:09;25.88;;;12.32;;
53545;SDS011;39432;51.902;10.844;2022-12-18T09:13:42;24.60;;;12.40;;
53545;SDS011;39432;51.902;10.844;2022-12-18T09:16:12;24.48;;;11.40;;
53545;SDS011;39432;51.902;10.844;2022-12-18T09:18:44;24.45;;;11.75;;
53545;SDS011;39432;51.902;10.844;2022-12-18T09:21:15;25.00;;;12.80;;
53545;SDS011;39432;51.902;10.844;2022-12-18T09:23:48;26.77;;;14.38;;
53545;SDS011;39432;51.902;10.844;2022-12-18T09:26:19;25.42;;;13.52;;
53545;SDS011;39432;51.902;10.844;2022-12-18T09:28:49;27.13;;;13.20;;
53545;SDS011;39432;51.902;10.844;2022-12-18T09:31:19;29.77;;;13.10;;
53545;SDS011;39432;51.902;10.844;2022-12-18T09:33:53;25.40;;;12.63;;
53545;SDS011;39432;51.902;10.844;2022-12-18T09:36:24;28.27;;;13.35;;
53545;SDS011;39432;51.902;10.844;2022-12-18T09:38:53;26.77;;;12.60;;
53545;SDS011;39432;51.902;10.844;2022-12-18T09:41:29;23.60;;;11.85;;
53545;SDS011;39432;51.902;10.844;2022-12-18T09:44:12;23.48;;;12.45;;
53545;SDS011;39432;51.902;10.844;2022-12-18T09:46:51;22.30;;;11.48;;
53545;SDS011;39432;51.902;10.844;2022-12-18T09:49:30;22.30;;;11.25;;
53545;SDS011;39432;51.902;10.844;2022-12-18T09:52:04;20.95;;;10.60;;
53545;SDS011;39432;51.902;10.844;2022-12-18T09:54:38;22.92;;;11.50;;
53545;SDS011;39432;51.902;10.844;2022-12-18T09:57:11;21.23;;;11.65;;
53545;SDS011;39432;51.902;10.844;2022-12-18T09:59:43;23.52;;;11.35;;
53545;SDS011;39432;51.902;10.844;2022-12-18T10:02:18;21.85;;;10.73;;
53545;SDS011;39432;51.902;10.844;2022-12-18T10:04:55;19.27;;;10.15;;
53545;SDS011;39432;51.902;10.844;2022-12-18T10:07:35;19.25;;;9.50;;
53545;SDS011;39432;51.902;10.844;2022-12-18T10:10:33;19.58;;;9.75;;
53545;SDS011;39432;51.902;10.844;2022-12-18T10:13:10;19.80;;;9.73;;
53545;SDS011;39432;51.902;10.844;2022-12-18T10:15:52;18.13;;;9.35;;
53545;SDS011;39432;51.902;10.844;2022-12-18T10:18:33;15.85;;;8.85;;
53545;SDS011;39432;51.902;10.844;2022-12-18T10:21:23;20.33;;;9.88;;
53545;SDS011;39432;51.902;10.844;2022-12-18T10:24:00;18.13;;;8.57;;
53545;SDS011;39432;51.902;10.844;2022-12-18T10:26:38;16.25;;;8.88;;
53545;SDS011;39432;51.902;10.844;2022-12-18T10:29:11;15.18;;;8.93;;
53545;SDS011;39432;51.902;10.844;2022-12-18T10:31:43;16.02;;;8.80;;
53545;SDS011;39432;51.902;10.844;2022-12-18T10:34:13;16.75;;;9.10;;
53545;SDS011;39432;51.902;10.844;2022-12-18T10:36:45;17.65;;;8.73;;
53545;SDS011;39432;51.902;10.844;2022-12-18T10:39:20;17.83;;;9.07;;
53545;SDS011;39432;51.902;10.844;2022-12-18T10:41:51;18.05;;;9.27;;
53545;SDS011;39432;51.902;10.844;2022-12-18T10:44:26;15.98;;;9.60;;
53545;SDS011;39432;51.902;10.844;2022-12-18T10:47:02;18.70;;;9.15;;
53545;SDS011;39432;51.902;10.844;2022-12-18T10:49:37;17.05;;;9.20;;
53545;SDS011;39432;51.902;10.844;2022-12-18T10:52:20;17.10;;;9.77;;
53545;SDS011;39432;51.902;10.844;2022-12-18T10:54:53;16.85;;;9.65;;
53545;SDS011;39432;51.902;10.844;2022-12-18T10:57:32;21.90;;;10.15;;
53545;SDS011;39432;51.902;10.844;2022-12-18T11:02:51;18.75;;;10.02;;
53545;SDS011;39432;51.902;10.844;2022-12-18T11:05:23;17.33;;;9.35;;
53545;SDS011;39432;51.902;10.844;2022-12-18T11:08:00;14.27;;;8.70;;
53545;SDS011;39432;51.902;10.844;2022-12-18T11:10:31;14.48;;;7.45;;
53545;SDS011;39432;51.902;10.844;2022-12-18T11:13:10;15.45;;;8.63;;
53545;SDS011;39432;51.902;10.844;2022-12-18T11:15:42;14.18;;;8.05;;
53545;SDS011;39432;51.902;10.844;2022-12-18T11:21:31;18.42;;;9.82;;
53545;SDS011;39432;51.902;10.844;2022-12-18T11:24:17;16.45;;;9.35;;
53545;SDS011;39432;51.902;10.844;2022-12-18T11:26:50;17.95;;;9.25;;
53545;SDS011;39432;51.902;10.844;2022-12-18T11:29:28;18.98;;;10.00;;
53545;SDS011;39432;51.902;10.844;2022-12-18T11:35:02;18.05;;;9.20;;
53545;SDS011;39432;51.902;10.844;2022-12-18T11:37:40;17.58;;;9.45;;
53545;SDS011;39432;51.902;10.844;2022-12-18T11:40:16;16.92;;;9.13;;
53545;SDS011;39432;51.902;10.844;2022-12-18T11:42:50;18.45;;;9.68;;
53545;SDS011;39432;51.902;10.844;2022-12-18T11:45:26;17.58;;;10.20;;
53545;SDS011;39432;51.902;10.844;2022-12-18T11:47:59;17.65;;;9.68;;
53545;SDS011;39432;51.902;10.844;2022-12-18T11:50:34;21.63;;;10.38;;
53545;SDS011;39432;51.902;10.844;2022-12-18T11:53:15;15.75;;;9.65;;
53545;SDS011;39432;51.902;10.844;2022-12-18T11:58:47;17.40;;;9.43;;
53545;SDS011;39432;51.902;10.844;2022-12-18T12:01:29;17.08;;;9.60;;
53545;SDS011;39432;51.902;10.844;2022-12-18T12:04:24;19.52;;;10.38;;
53545;SDS011;39432;51.902;10.844;2022-12-18T12:07:25;17.60;;;10.38;;
53545;SDS011;39432;51.902;10.844;2022-12-18T12:10:05;18.00;;;10.57;;
53545;SDS011;39432;51.902;10.844;2022-12-18T12:12:49;22.15;;;10.93;;
53545;SDS011;39432;51.902;10.844;2022-12-18T12:15:30;18.60;;;10.35;;
53545;SDS011;39432;51.902;10.844;2022-12-18T12:18:09;18.30;;;9.82;;
53545;SDS011;39432;51.902;10.844;2022-12-18T12:20:50;16.95;;;9.95;;
53545;SDS011;39432;51.902;10.844;2022-12-18T12:23:28;15.85;;;9.38;;
53545;SDS011;39432;51.902;10.844;2022-12-18T12:26:07;16.02;;;9.45;;
53545;SDS011;39432;51.902;10.844;2022-12-18T12:31:46;17.55;;;10.18;;
53545;SDS011;39432;51.902;10.844;2022-12-18T12:34:29;18.30;;;9.70;;
53545;SDS011;39432;51.902;10.844;2022-12-18T12:37:07;20.25;;;10.52;;
53545;SDS011;39432;51.902;10.844;2022-12-18T12:39:47;18.23;;;9.60;;
53545;SDS011;39432;51.902;10.844;2022-12-18T12:42:18;14.88;;;9.05;;
53545;SDS011;39432;51.902;10.844;2022-12-18T12:45:16;16.48;;;9.98;;
53545;SDS011;39432;51.902;10.844;2022-12-18T12:47:52;17.42;;;9.73;;
53545;SDS011;39432;51.902;10.844;2022-12-18T12:50:24;16.05;;;8.90;;
53545;SDS011;39432;51.902;10.844;2022-12-18T12:52:55;16.88;;;9.70;;
53545;SDS011;39432;51.902;10.844;2022-12-18T12:55:27;18.60;;;9.82;;
53545;SDS011;39432;51.902;10.844;2022-12-18T12:58:00;18.75;;;10.18;;
53545;SDS011;39432;51.902;10.844;2022-12-18T13:00:40;19.20;;;10.80;;
53545;SDS011;39432;51.902;10.844;2022-12-18T13:03:23;16.52;;;10.05;;
53545;SDS011;39432;51.902;10.844;2022-12-18T13:06:04;18.77;;;10.73;;
53545;SDS011;39432;51.902;10.844;2022-12-18T13:08:52;19.33;;;10.05;;
53545;SDS011;39432;51.902;10.844;2022-12-18T13:11:31;19.27;;;11.52;;
53545;SDS011;39432;51.902;10.844;2022-12-18T13:14:29;15.73;;;9.43;;
53545;SDS011;39432;51.902;10.844;2022-12-18T13:17:21;14.55;;;9.23;;
53545;SDS011;39432;51.902;10.844;2022-12-18T13:20:07;16.55;;;8.63;;
53545;SDS011;39432;51.902;10.844;2022-12-18T13:22:43;17.00;;;8.48;;
53545;SDS011;39432;51.902;10.844;2022-12-18T13:25:28;16.20;;;8.85;;
53545;SDS011;39432;51.902;10.844;2022-12-18T13:28:04;14.50;;;8.30;;
53545;SDS011;39432;51.902;10.844;2022-12-18T13:30:46;15.35;;;8.85;;
53545;SDS011;39432;51.902;10.844;2022-12-18T13:36:39;17.98;;;9.05;;
53545;SDS011;39432;51.902;10.844;2022-12-18T13:39:10;32.53;;;18.13;;
53545;SDS011;39432;51.902;10.844;2022-12-18T13:48:15;14.63;;;8.57;;
53545;SDS011;39432;51.902;10.844;2022-12-18T13:50:58;15.85;;;8.60;;
53545;SDS011;39432;51.902;10.844;2022-12-18T13:53:34;14.50;;;8.70;;
53545;SDS011;39432;51.902;10.844;2022-12-18T13:56:08;19.63;;;9.77;;
53545;SDS011;39432;51.902;10.844;2022-12-18T13:58:38;18.45;;;9.77;;
53545;SDS011;39432;51.902;10.844;2022-12-18T14:01:15;18.15;;;8.50;;
53545;SDS011;39432;51.902;10.844;2022-12-18T14:03:51;21.48;;;10.20;;
53545;SDS011;39432;51.902;10.844;2022-12-18T14:06:43;18.25;;;9.25;;
53545;SDS011;39432;51.902;10.844;2022-12-18T14:09:14;17.33;;;8.90;;
53545;SDS011;39432;51.902;10.844;2022-12-18T14:11:47;17.63;;;9.55;;
53545;SDS011;39432;51.902;10.844;2022-12-18T14:14:18;15.98;;;8.82;;
53545;SDS011;39432;51.902;10.844;2022-12-18T14:16:57;17.73;;;9.68;;
53545;SDS011;39432;51.902;10.844;2022-12-18T14:19:33;16.48;;;7.50;;
53545;SDS011;39432;51.902;10.844;2022-12-18T14:22:09;14.95;;;8.20;;
53545;SDS011;39432;51.902;10.844;2022-12-18T14:24:44;11.38;;;6.85;;
53545;SDS011;39432;51.902;10.844;2022-12-18T14:27:21;13.10;;;6.90;;
53545;SDS011;39432;51.902;10.844;2022-12-18T14:29:52;15.98;;;8.75;;
53545;SDS011;39432;51.902;10.844;2022-12-18T14:32:22;13.77;;;7.90;;
53545;SDS011;39432;51.902;10.844;2022-12-18T14:34:53;14.82;;;7.57;;
53545;SDS011;39432;51.902;10.844;2022-12-18T14:37:26;15.23;;;8.13;;
53545;SDS011;39432;51.902;10.844;2022-12-18T14:39:58;14.50;;;8.38;;
53545;SDS011;39432;51.902;10.844;2022-12-18T14:42:36;12.73;;;7.25;;
53545;SDS011;39432;51.902;10.844;2022-12-18T14:48:08;13.82;;;6.78;;
53545;SDS011;39432;51.902;10.844;2022-12-18T14:50:56;11.75;;;6.22;;
53545;SDS011;39432;51.902;10.844;2022-12-18T14:53:32;11.95;;;5.70;;
53545;SDS011;39432;51.902;10.844;2022-12-18T14:56:15;11.68;;;5.75;;
53545;SDS011;39432;51.902;10.844;2022-12-18T14:58:47;10.60;;;5.10;;
53545;SDS011;39432;51.902;10.844;2022-12-18T15:01:19;9.77;;;4.70;;
53545;SDS011;39432;51.902;10.844;2022-12-18T15:03:51;9.88;;;5.47;;
53545;SDS011;39432;51.902;10.844;2022-12-18T15:06:24;8.95;;;4.53;;
53545;SDS011;39432;51.902;10.844;2022-12-18T15:09:00;7.00;;;4.15;;
53545;SDS011;39432;51.902;10.844;2022-12-18T15:11:33;8.23;;;4.28;;
53545;SDS011;39432;51.902;10.844;2022-12-18T15:17:05;9.10;;;5.15;;
53545;SDS011;39432;51.902;10.844;2022-12-18T15:19:43;8.73;;;4.88;;
53545;SDS011;39432;51.902;10.844;2022-12-18T15:22:19;11.63;;;4.68;;
53545;SDS011;39432;51.902;10.844;2022-12-18T15:24:54;8.85;;;4.57;;
53545;SDS011;39432;51.902;10.844;2022-12-18T15:27:28;7.72;;;4.47;;
53545;SDS011;39432;51.902;10.844;2022-12-18T15:35:46;7.63;;;4.07;;
53545;SDS011;39432;51.902;10.844;2022-12-18T15:38:24;10.05;;;4.57;;
53545;SDS011;39432;51.902;10.844;2022-12-18T15:40:57;6.88;;;4.10;;